Time;durP1;ratioP1;P1;durP2;ratioP2;P2;SDS_P1;SDS_P2;PMS_P1;PMS_P2;Temp;Humidity;BMP_temperature;BMP_pressure;BME280_temperature;BME280_humidity;BME280_pressure;Samples;Min_cycle;Max_cycle;Signal;HPM_P1;HPM_P2
2022/06/19 00:00:17;;;;;;;9.58;5.62;;;;;;;19.59;55.89;100053.78;2153915;81;29438;-62
2022/06/19 00:03:34;;;;;;;11.85;6.12;;;;;;;19.57;56.08;100052.21;2158496;80;27742;-66
2022/06/19 00:06:37;;;;;;;8.75;6.25;;;;;;;19.54;56.08;100051.97;2137181;83;29433;-67
2022/06/19 00:09:39;;;;;;;8.40;5.83;;;;;;;19.51;56.13;100051.41;2136844;82;31057;-66
2022/06/19 00:12:41;;;;;;;11.00;5.87;;;;;;;19.47;56.23;100052.67;2131358;83;34222;-65
2022/06/19 00:15:43;;;;;;;8.85;5.92;;;;;;;19.42;56.41;100048.55;2117994;83;29321;-71
2022/06/19 00:18:45;;;;;;;7.20;5.85;;;;;;;19.38;56.73;100040.79;2137097;83;28235;-64
2022/06/19 00:21:47;;;;;;;11.05;6.25;;;;;;;19.36;56.93;100041.46;2136499;82;30036;-64
2022/06/19 00:24:49;;;;;;;10.65;5.60;;;;;;;19.34;56.84;100036.14;2105433;82;32229;-64
2022/06/19 00:27:51;;;;;;;8.68;5.80;;;;;;;19.26;57.07;100027.34;2100634;83;34159;-76
2022/06/19 00:30:53;;;;;;;9.85;4.95;;;;;;;19.28;57.23;100034.85;2102621;83;30492;-68
2022/06/19 00:33:55;;;;;;;15.30;5.92;;;;;;;19.24;57.11;100035.27;2127250;83;28272;-67
2022/06/19 00:37:00;;;;;;;9.30;5.10;;;;;;;19.20;57.29;100033.31;2164975;81;28699;-65
2022/06/19 00:40:02;;;;;;;11.33;5.72;;;;;;;19.17;57.41;100031.38;2150908;80;31020;-65
2022/06/19 00:43:03;;;;;;;9.88;5.03;;;;;;;19.15;57.52;100026.59;2148847;82;32954;-68
2022/06/19 00:46:29;;;;;;;9.05;5.58;;;;;;;19.11;57.64;100028.22;2151324;82;29695;-66
2022/06/19 00:49:38;;;;;;;8.65;5.35;;;;;;;19.09;57.73;100023.45;2040738;87;27728;-69
2022/06/19 00:52:42;;;;;;;10.40;4.55;;;;;;;19.06;57.92;100024.20;2040625;87;28716;-64
2022/06/19 00:55:47;;;;;;;9.03;4.85;;;;;;;19.03;58.17;100029.94;1955703;90;31068;-64
2022/06/19 00:58:50;;;;;;;8.03;5.00;;;;;;;19.01;58.16;100031.92;2033697;87;33720;-64
2022/06/19 01:01:52;;;;;;;10.23;5.30;;;;;;;18.98;58.31;100035.27;2007644;88;30589;-63
2022/06/19 01:04:56;;;;;;;6.72;4.78;;;;;;;18.96;58.49;100033.67;2017331;87;27700;-63
2022/06/19 01:08:00;;;;;;;7.45;6.00;;;;;;;18.92;58.62;100028.14;1976382;90;28693;-61
2022/06/19 01:11:03;;;;;;;7.45;5.15;;;;;;;18.91;58.75;100031.34;2012123;88;31686;-63
2022/06/19 01:14:10;;;;;;;7.78;5.03;;;;;;;18.90;58.71;100041.84;1975685;88;33952;-61
2022/06/19 01:17:14;;;;;;;7.60;5.20;;;;;;;18.88;58.80;100034.33;2012026;88;30272;-62
2022/06/19 01:20:16;;;;;;;6.60;4.80;;;;;;;18.87;58.92;100032.60;2022342;85;27818;-65
2022/06/19 01:24:03;;;;;;;7.83;5.08;;;;;;;18.83;58.87;100031.18;2108018;82;29955;-64
2022/06/19 01:27:08;;;;;;;7.30;4.72;;;;;;;18.80;59.10;100028.22;2132218;81;31188;-69
2022/06/19 01:30:11;;;;;;;7.42;5.92;;;;;;;18.78;59.01;100034.80;2131875;83;33013;-66
2022/06/19 01:33:17;;;;;;;8.15;5.00;;;;;;;18.77;59.06;100035.78;2148911;81;30100;-64
2022/06/19 01:36:21;;;;;;;11.50;5.08;;;;;;;18.74;59.18;100030.14;2107441;84;27780;-69
2022/06/19 01:39:24;;;;;;;9.13;5.42;;;;;;;18.73;59.30;100027.06;2107687;84;29867;-63
2022/06/19 01:42:27;;;;;;;6.70;5.05;;;;;;;18.70;59.40;100026.48;2107460;83;31822;-69
2022/06/19 01:45:32;;;;;;;8.15;5.58;;;;;;;18.66;59.65;100028.59;2191605;81;32961;-63
2022/06/19 01:48:34;;;;;;;6.10;4.40;;;;;;;18.63;59.76;100025.66;2192952;79;30375;-62
2022/06/19 01:51:37;;;;;;;11.97;5.30;;;;;;;18.59;59.85;100028.27;2192658;81;27680;-68
2022/06/19 01:54:43;;;;;;;8.48;5.10;;;;;;;18.57;60.01;100026.70;2175087;81;28863;-67
2022/06/19 01:57:50;;;;;;;10.35;5.55;;;;;;;18.53;60.10;100028.32;2167395;81;31801;-67
2022/06/19 02:00:52;;;;;;;7.47;5.28;;;;;;;18.50;60.23;100027.73;2172136;81;33042;-67
2022/06/19 02:03:56;;;;;;;6.42;5.40;;;;;;;18.48;60.46;100028.36;2160830;81;30409;-66
2022/06/19 02:07:05;;;;;;;9.08;5.67;;;;;;;18.45;60.60;100025.91;2140129;83;27636;-67
2022/06/19 02:10:08;;;;;;;7.03;5.47;;;;;;;18.43;60.86;100020.64;2139895;83;28628;-65
2022/06/19 02:13:12;;;;;;;6.10;5.12;;;;;;;18.43;60.96;100017.05;2140490;81;31032;-67
2022/06/19 02:16:21;;;;;;;8.93;5.20;;;;;;;18.42;60.99;100016.20;2140077;83;33119;-69
2022/06/19 02:19:22;;;;;;;9.78;5.55;;;;;;;18.42;60.94;100011.26;2140108;83;29306;-64
2022/06/19 02:22:24;;;;;;;6.28;4.85;;;;;;;18.42;60.96;100009.42;2139844;83;27715;-63
2022/06/19 02:25:27;;;;;;;9.95;5.70;;;;;;;18.41;61.01;100014.48;2174126;81;28773;-69
2022/06/19 02:28:29;;;;;;;7.15;5.20;;;;;;;18.39;61.15;100017.83;2177095;81;31077;-67
2022/06/19 02:31:34;;;;;;;8.05;5.30;;;;;;;18.38;61.46;100019.66;2180208;80;34183;-65
2022/06/19 02:34:39;;;;;;;8.70;5.37;;;;;;;18.37;61.41;100022.52;2167197;81;29449;-64
2022/06/19 02:37:46;;;;;;;5.55;4.75;;;;;;;18.35;61.64;100013.17;2153474;81;27660;-63
2022/06/19 02:41:02;;;;;;;7.58;4.67;;;;;;;18.35;61.95;100011.81;2153146;82;28679;-66
2022/06/19 02:44:04;;;;;;;9.73;4.65;;;;;;;18.34;62.05;100003.31;2169472;81;31584;-62
2022/06/19 02:47:10;;;;;;;9.13;4.80;;;;;;;18.35;61.95;100004.16;2190455;81;34295;-63
2022/06/19 02:50:17;;;;;;;8.83;4.80;;;;;;;18.36;62.36;100001.33;2185358;81;29383;-65
2022/06/19 02:53:20;;;;;;;8.43;4.55;;;;;;;18.40;62.19;99997.84;2139807;82;27743;-62
2022/06/19 02:56:23;;;;;;;6.12;4.33;;;;;;;18.43;62.45;100000.30;2167585;82;29877;-62
2022/06/19 02:59:25;;;;;;;7.85;4.62;;;;;;;18.47;62.38;99994.94;2167997;82;31457;-62
2022/06/19 03:02:28;;;;;;;8.00;4.10;;;;;;;18.53;62.44;99990.85;2167399;80;34171;-62
2022/06/19 03:05:31;;;;;;;7.92;4.33;;;;;;;18.59;62.56;99987.58;2134858;82;29327;-62
2022/06/19 03:08:33;;;;;;;9.90;4.28;;;;;;;18.66;62.44;99991.48;2130757;83;27663;-64
2022/06/19 03:11:35;;;;;;;7.15;4.85;;;;;;;18.71;62.52;99988.34;2130087;83;30113;-62
2022/06/19 03:14:37;;;;;;;8.28;4.80;;;;;;;18.78;62.46;99988.14;2152939;82;31975;-63
2022/06/19 03:17:40;;;;;;;5.33;4.50;;;;;;;18.86;62.32;99986.61;2167470;82;34314;-61
2022/06/19 03:20:42;;;;;;;5.85;4.30;;;;;;;18.94;62.52;99983.59;2167519;82;30502;-61
2022/06/19 03:23:45;;;;;;;6.17;4.67;;;;;;;19.03;62.37;99985.98;2157047;82;27640;-64
2022/06/19 03:26:47;;;;;;;7.40;4.97;;;;;;;19.10;62.22;99974.06;2130998;83;29927;-63
2022/06/19 03:29:52;;;;;;;6.58;4.40;;;;;;;19.18;62.19;99959.30;2130898;83;31054;-62
2022/06/19 03:32:54;;;;;;;7.05;4.00;;;;;;;19.30;62.14;99952.38;2130583;82;34250;-62
2022/06/19 03:35:56;;;;;;;6.17;4.42;;;;;;;19.41;61.94;99942.72;2167487;82;29402;-61
2022/06/19 03:38:58;;;;;;;5.75;4.87;;;;;;;19.53;61.84;99929.86;2167861;82;27645;-64
2022/06/19 03:42:00;;;;;;;4.97;4.37;;;;;;;19.67;61.67;99928.05;2167615;82;29461;-67
2022/06/19 03:45:02;;;;;;;5.78;4.78;;;;;;;19.78;61.47;99921.61;2143804;80;31059;-63
2022/06/19 03:48:06;;;;;;;6.65;4.42;;;;;;;19.92;61.39;99928.50;2167389;82;34238;-65
2022/06/19 03:51:08;;;;;;;6.45;4.37;;;;;;;20.10;61.29;99933.18;2167781;82;29368;-61
2022/06/19 03:54:10;;;;;;;5.53;4.00;;;;;;;20.27;61.21;99934.27;2153168;82;27637;-65
2022/06/19 03:57:14;;;;;;;7.08;4.35;;;;;;;20.45;61.12;99942.00;2130830;83;29483;-62
2022/06/19 04:00:18;;;;;;;6.12;4.55;;;;;;;20.62;60.80;99938.13;2130812;83;31028;-64
2022/06/19 04:03:20;;;;;;;;;;;;;;;20.80;60.85;99932.76;2137147;82;33697;-64
2022/06/19 04:06:28;;;;;;;10.90;4.53;;;;;;;21.00;60.38;99928.56;2167966;81;29907;-63
2022/06/19 04:09:30;;;;;;;6.55;4.03;;;;;;;21.13;60.06;99918.67;2167899;82;28279;-62
2022/06/19 04:12:33;;;;;;;7.00;3.83;;;;;;;21.28;59.53;99915.75;2167492;82;28676;-68
2022/06/19 04:15:35;;;;;;;5.25;4.40;;;;;;;21.45;59.60;99910.45;2136550;82;32185;-64
2022/06/19 04:18:38;;;;;;;5.53;4.08;;;;;;;21.65;59.13;99902.98;2130527;83;34192;-63
2022/06/19 04:21:45;;;;;;;7.55;4.12;;;;;;;21.82;58.79;99899.88;2130788;83;30115;-65
2022/06/19 04:24:48;;;;;;;7.75;3.90;;;;;;;22.03;58.18;99902.73;2151320;82;28150;-62
2022/06/19 04:27:51;;;;;;;4.47;3.27;;;;;;;22.24;58.33;99895.55;2167664;82;29371;-68
2022/06/19 04:30:53;;;;;;;4.45;3.80;;;;;;;22.45;57.81;99902.83;2167396;82;32221;-61
2022/06/19 04:33:56;;;;;;;4.00;3.47;;;;;;;22.70;57.75;99902.94;2137376;82;34071;-64
2022/06/19 04:36:58;;;;;;;5.37;3.55;;;;;;;22.98;57.52;99910.03;2108634;83;30321;-61
2022/06/19 04:40:00;;;;;;;3.42;3.12;;;;;;;23.25;56.95;99903.95;2108373;83;27697;-64
2022/06/19 04:43:03;;;;;;;4.12;3.77;;;;;;;23.52;56.20;99895.42;2108316;84;30194;-64
2022/06/19 04:46:06;;;;;;;4.45;3.25;;;;;;;23.75;55.93;99893.86;2143236;83;31329;-62
2022/06/19 04:49:09;;;;;;;4.58;3.17;;;;;;;24.14;55.24;99889.58;2150977;80;34090;-62
2022/06/19 04:52:12;;;;;;;4.70;3.27;;;;;;;24.67;55.27;99889.89;2151185;82;30076;-61
2022/06/19 04:55:16;;;;;;;3.55;3.20;;;;;;;25.28;54.42;99895.55;2126619;82;27639;-64
2022/06/19 04:58:22;;;;;;;4.30;3.37;;;;;;;25.88;53.00;99898.49;2115123;84;28682;-64
2022/06/19 05:01:27;;;;;;;8.15;3.83;;;;;;;26.44;52.80;99902.73;2114782;83;31479;-60
2022/06/19 05:04:28;;;;;;;4.20;3.40;;;;;;;27.08;52.01;99898.48;2130006;82;33080;-64
2022/06/19 05:07:32;;;;;;;4.10;3.08;;;;;;;27.72;51.44;99896.79;2151141;82;30163;-61
2022/06/19 05:10:36;;;;;;;4.70;3.10;;;;;;;28.40;50.66;99893.15;2151382;82;33080;-61
2022/06/19 05:13:37;;;;;;;3.00;2.70;;;;;;;29.02;49.43;99898.22;2149111;82;29442;-59
2022/06/19 05:16:40;;;;;;;4.15;3.22;;;;;;;29.64;48.94;99891.22;2150763;82;31051;-59
2022/06/19 05:19:42;;;;;;;5.80;3.12;;;;;;;30.16;47.66;99891.95;2151223;82;33881;-59
2022/06/19 05:22:44;;;;;;;3.80;2.30;;;;;;;30.71;46.87;99886.06;2138192;82;29999;-60
2022/06/19 05:25:46;;;;;;;6.05;2.95;;;;;;;31.22;46.07;99888.47;2114619;84;27731;-60
2022/06/19 05:28:50;;;;;;;4.45;2.85;;;;;;;31.69;44.99;99884.50;2114561;83;29887;-60
2022/06/19 05:31:53;;;;;;;8.05;3.10;;;;;;;32.19;43.98;99888.31;2115733;82;31038;-60
2022/06/19 05:34:55;;;;;;;2.77;2.58;;;;;;;32.70;43.41;99885.73;2111972;82;34303;-60
2022/06/19 05:37:57;;;;;;;6.90;3.10;;;;;;;33.15;42.26;99885.90;2125639;82;29770;-61
2022/06/19 05:41:01;;;;;;;6.58;3.25;;;;;;;33.62;41.42;99886.59;2147366;82;27747;-60
2022/06/19 05:44:02;;;;;;;3.42;2.72;;;;;;;34.06;40.56;99886.82;2120940;82;28715;-60
2022/06/19 05:47:04;;;;;;;3.90;2.60;;;;;;;34.48;39.71;99888.08;2110855;84;32233;-60
2022/06/19 05:50:09;;;;;;;5.33;2.83;;;;;;;34.88;38.91;99886.39;2111701;84;34192;-60
2022/06/19 05:53:11;;;;;;;3.35;2.72;;;;;;;35.26;38.22;99875.70;2115385;82;30274;-62
2022/06/19 05:56:14;;;;;;;6.30;2.60;;;;;;;35.65;37.45;99877.78;2104707;84;27718;-61
2022/06/19 05:59:16;;;;;;;4.58;2.70;;;;;;;35.89;36.23;99867.29;2126035;83;30116;-60
2022/06/19 06:02:21;;;;;;;2.70;2.37;;;;;;;36.06;35.91;99866.45;2043694;86;31729;-60
2022/06/19 06:05:29;;;;;;;4.40;2.08;;;;;;;36.34;35.61;99862.09;2034616;86;33367;-59
2022/06/19 06:08:42;;;;;;;5.28;2.33;;;;;;;36.70;35.12;99865.08;2034413;86;29451;-60
2022/06/19 06:11:53;;;;;;;7.80;3.35;;;;;;;37.02;33.75;99860.16;2051581;86;27696;-60
2022/06/19 06:14:55;;;;;;;3.20;2.40;;;;;;;37.30;33.33;99850.66;2126236;83;28612;-59
2022/06/19 06:17:59;;;;;;;3.85;2.20;;;;;;;37.55;32.73;99851.45;2068132;86;31642;-60
2022/06/19 06:21:05;;;;;;;4.75;2.50;;;;;;;37.81;32.52;99834.86;2117726;83;32977;-64
2022/06/19 06:24:08;;;;;;;5.03;2.40;;;;;;;38.04;31.86;99836.99;2034563;87;29420;-59
2022/06/19 06:27:10;;;;;;;2.85;2.30;;;;;;;38.28;31.84;99837.97;2090536;85;27669;-59
2022/06/19 06:30:13;;;;;;;3.17;2.20;;;;;;;38.50;31.27;99841.14;2046563;86;29904;-60
2022/06/19 06:33:15;;;;;;;2.58;2.10;;;;;;;38.78;30.71;99841.23;2082063;83;32179;-59
2022/06/19 06:36:17;;;;;;;3.85;2.67;;;;;;;39.00;30.72;99844.41;2086036;85;33385;-59
2022/06/19 06:39:20;;;;;;;3.98;2.65;;;;;;;39.25;29.40;99842.19;2086124;85;30158;-60
2022/06/19 06:42:23;;;;;;;7.20;2.20;;;;;;;39.42;28.70;99841.94;2063137;85;27737;-64
2022/06/19 06:45:24;;;;;;;2.72;2.35;;;;;;;39.60;28.70;99846.69;2051539;86;29897;-59
2022/06/19 06:48:26;;;;;;;7.08;2.35;;;;;;;39.72;28.04;99842.20;2051645;86;32309;-60
2022/06/19 06:51:32;;;;;;;3.70;2.40;;;;;;;39.95;28.01;99833.77;2064168;85;34220;-59
2022/06/19 06:54:37;;;;;;;2.25;1.98;;;;;;;40.05;27.20;99828.11;2086601;85;30074;-61
2022/06/19 06:57:39;;;;;;;8.08;2.50;;;;;;;40.18;27.22;99837.91;2085918;85;27735;-60
2022/06/19 07:00:42;;;;;;;5.33;2.90;;;;;;;40.27;25.81;99838.77;2082614;85;29949;-59
2022/06/19 07:03:49;;;;;;;4.22;2.45;;;;;;;40.21;26.04;99833.16;2051855;86;31696;-61
2022/06/19 07:06:50;;;;;;;2.98;2.30;;;;;;;40.32;25.80;99826.09;2051701;86;33803;-68
2022/06/19 07:09:52;;;;;;;5.85;2.50;;;;;;;40.46;25.52;99828.55;2051508;86;29778;-60
2022/06/19 07:12:54;;;;;;;5.33;2.33;;;;;;;40.33;24.81;99822.16;2080062;85;27778;-65
2022/06/19 07:15:56;;;;;;;4.22;2.15;;;;;;;40.30;24.96;99813.76;2085522;85;29972;-60
2022/06/19 07:18:59;;;;;;;4.75;2.52;;;;;;;40.39;25.35;99814.00;2085723;85;32371;-61
2022/06/19 07:22:01;;;;;;;6.70;2.20;;;;;;;40.53;24.79;99808.02;2068378;85;33984;-59
2022/06/19 07:25:05;;;;;;;3.15;2.83;;;;;;;40.60;24.68;99800.69;2052689;85;29816;-62
2022/06/19 07:28:07;;;;;;;3.72;2.70;;;;;;;40.61;24.71;99796.75;2107606;84;27695;-63
2022/06/19 07:31:10;;;;;;;3.08;2.35;;;;;;;40.82;24.19;99792.44;2123217;83;29256;-61
2022/06/19 07:34:12;;;;;;;2.58;2.10;;;;;;;40.89;24.65;99789.30;2092467;82;31415;-62
2022/06/19 07:37:15;;;;;;;4.30;2.60;;;;;;;41.18;24.30;99787.98;2090504;85;33616;-63
2022/06/19 07:40:17;;;;;;;;;;;;;;;41.28;23.95;99792.69;2092822;84;30179;-61
2022/06/19 07:43:20;;;;;;;8.35;2.27;;;;;;;41.26;23.25;99787.92;2123478;83;27713;-61
2022/06/19 07:46:24;;;;;;;5.85;2.87;;;;;;;41.15;23.52;99785.77;2126367;83;28818;-61
2022/06/19 07:52:49;;;;;;;6.60;2.47;;;;;;;41.40;23.44;99781.02;2099957;83;33691;-61
2022/06/19 07:55:51;;;;;;;6.90;2.60;;;;;;;41.29;23.00;99773.25;2090249;84;30186;-61
2022/06/19 07:58:53;;;;;;;4.03;2.50;;;;;;;41.27;22.48;99765.70;2090955;85;28237;-61
2022/06/19 08:01:54;;;;;;;6.03;2.33;;;;;;;41.36;23.19;99763.92;2105955;83;29982;-61
2022/06/19 08:04:58;;;;;;;6.37;2.30;;;;;;;41.52;22.76;99766.05;2125888;83;31444;-60
2022/06/19 08:08:00;;;;;;;;;;;;;;;41.57;22.89;99767.39;2128836;83;34163;-61
2022/06/19 08:11:04;;;;;;;3.80;2.62;;;;;;;41.71;22.04;99770.34;2121853;83;29664;-61
2022/06/19 08:14:06;;;;;;;3.83;2.22;;;;;;;41.75;22.64;99767.77;2090819;85;27698;-62
2022/06/19 08:17:09;;;;;;;5.22;2.37;;;;;;;41.78;22.37;99766.34;2090468;85;29875;-61
2022/06/19 08:20:12;;;;;;;3.60;2.60;;;;;;;41.85;22.29;99766.80;2090545;85;32389;-61
2022/06/19 08:23:13;;;;;;;;;;;;;;;41.73;21.95;99771.44;2123617;83;33153;-61
2022/06/19 08:26:15;;;;;;;7.62;2.67;;;;;;;41.73;22.06;99763.86;2126554;83;29849;-60
2022/06/19 08:29:17;;;;;;;5.95;2.25;;;;;;;41.85;22.47;99766.26;2126836;83;28121;-61
2022/06/19 08:32:19;;;;;;;2.75;2.33;;;;;;;42.00;22.35;99762.43;2107088;83;29903;-60
2022/06/19 08:35:21;;;;;;;3.08;2.60;;;;;;;41.93;22.07;99768.12;2105983;84;32395;-60
2022/06/19 08:38:28;;;;;;;4.33;2.30;;;;;;;41.72;21.73;99757.95;2108563;84;34296;-61
2022/06/19 08:41:57;;;;;;;8.68;2.62;;;;;;;41.68;21.79;99748.43;2117674;83;29318;-61
2022/06/19 08:45:25;;;;;;;5.50;2.52;;;;;;;41.65;22.04;99756.64;2151491;82;27713;-61
2022/06/19 08:48:47;;;;;;;4.97;2.40;;;;;;;41.61;21.27;99755.82;2070183;84;28886;-62
2022/06/19 08:52:04;;;;;;;5.30;2.30;;;;;;;41.41;21.71;99746.16;2069409;84;31912;-62
2022/06/19 08:55:42;;;;;;;8.13;2.70;;;;;;;40.92;21.07;99746.00;2067151;86;34162;-64
2022/06/19 08:59:04;;;;;;;7.30;2.87;;;;;;;40.48;21.25;99745.45;2062305;86;29760;-62
2022/06/19 09:02:38;;;;;;;5.75;2.45;;;;;;;40.31;21.91;99733.19;2062381;86;28273;-62
2022/06/19 09:06:01;;;;;;;3.27;2.62;;;;;;;40.22;21.87;99738.02;2062349;86;29952;-62
2022/06/19 09:09:28;;;;;;;8.13;2.67;;;;;;;39.98;22.02;99738.37;2062290;86;31106;-62
2022/06/19 09:12:41;;;;;;;5.67;2.10;;;;;;;39.82;21.73;99741.23;2062333;86;34181;-63
2022/06/19 09:15:54;;;;;;;4.03;2.37;;;;;;;39.64;21.99;99742.67;2062441;86;31408;-62
2022/06/19 09:19:26;;;;;;;2.45;2.02;;;;;;;39.49;22.36;99737.92;2062667;86;27854;-63
2022/06/19 09:23:18;;;;;;;4.45;2.10;;;;;;;39.49;22.91;99735.13;2034219;86;29403;-62
2022/06/19 09:26:31;;;;;;;5.85;2.22;;;;;;;39.54;22.41;99730.09;2003428;87;31528;-62
2022/06/19 09:29:52;;;;;;;5.65;2.10;;;;;;;39.26;22.47;99718.32;1961450;89;33887;-63
2022/06/19 09:32:59;;;;;;;4.50;2.15;;;;;;;39.14;22.72;99720.01;2021368;87;30525;-64
2022/06/19 09:36:06;;;;;;;4.65;2.58;;;;;;;39.00;22.67;99723.95;2034877;86;27778;-63
2022/06/19 09:39:25;;;;;;;5.58;2.47;;;;;;;38.81;22.45;99715.22;2050410;86;28833;-64
2022/06/19 09:42:40;;;;;;;3.83;2.15;;;;;;;38.53;22.31;99707.11;2050214;86;32355;-65
2022/06/19 09:46:01;;;;;;;5.47;1.77;;;;;;;38.34;22.72;99707.31;2050154;86;34356;-63
2022/06/19 09:49:21;;;;;;;9.50;2.00;;;;;;;38.13;22.81;99698.86;2027495;87;30596;-64
2022/06/19 09:52:34;;;;;;;4.83;2.08;;;;;;;37.89;22.66;99705.45;2026665;84;27833;-63
2022/06/19 09:55:44;;;;;;;5.35;2.52;;;;;;;37.64;22.67;99700.03;2108568;84;29111;-63
2022/06/19 09:58:57;;;;;;;7.35;1.98;;;;;;;37.33;22.79;99704.84;2112610;83;30784;-63
2022/06/19 10:02:04;;;;;;;5.67;2.57;;;;;;;37.05;23.15;99690.68;2108899;83;33642;-62
2022/06/19 10:05:35;;;;;;;3.27;1.87;;;;;;;36.85;23.48;99686.58;2108344;83;29765;-63
2022/06/19 10:08:58;;;;;;;5.92;1.90;;;;;;;36.64;23.23;99679.98;2120624;83;27778;-68
2022/06/19 10:12:03;;;;;;;8.53;2.00;;;;;;;36.32;23.07;99688.56;2136236;83;29995;-67
2022/06/19 10:15:16;;;;;;;6.83;2.22;;;;;;;36.06;23.13;99677.70;2144317;82;31967;-63
2022/06/19 10:18:22;;;;;;;6.17;1.90;;;;;;;35.87;23.66;99686.37;2121756;83;33912;-67
2022/06/19 10:25:22;;;;;;;;;;;;;;;35.65;23.87;99684.97;2123817;83;27654;-69
2022/06/19 10:28:27;;;;;;;;;;;;;;;35.48;23.98;99678.61;2147292;82;28568;-72
2022/06/19 10:31:55;;;;;;;2.87;1.92;;;;;;;35.40;24.01;99675.68;2144550;83;32365;-66
2022/06/19 10:35:18;;;;;;;11.50;2.33;;;;;;;35.24;24.18;99672.67;2123687;81;34257;-68
2022/06/19 10:39:11;;;;;;;4.87;2.08;;;;;;;35.17;24.56;99661.39;2090713;83;30529;-68
2022/06/19 10:42:36;;;;;;;5.65;2.27;;;;;;;35.08;24.42;99650.70;2052048;86;27717;-71
2022/06/19 10:45:48;;;;;;;3.20;1.45;;;;;;;34.92;24.62;99657.09;2068842;85;30052;-70
2022/06/19 10:49:16;;;;;;;1.80;1.40;;;;;;;34.80;25.13;99653.00;2051228;86;31212;-66
2022/06/19 10:52:47;;;;;;;4.92;2.10;;;;;;;34.76;25.41;99655.45;2120406;83;33893;-65
2022/06/19 10:56:09;;;;;;;3.42;1.50;;;;;;;34.71;25.43;99657.31;2034682;87;29339;-64
2022/06/19 10:59:11;;;;;;;5.28;1.90;;;;;;;34.64;25.77;99644.97;2124603;83;27704;-64
2022/06/19 11:06:07;;;;;;;;;;;;;;;34.61;26.14;99632.38;2124293;83;31129;-65
2022/06/19 11:09:19;;;;;;;6.08;1.40;;;;;;;34.57;26.45;99630.36;2113181;83;33800;-66
2022/06/19 11:12:41;;;;;;;5.67;1.75;;;;;;;34.50;26.62;99622.19;2113747;83;29353;-61
2022/06/19 11:16:02;;;;;;;6.97;1.70;;;;;;;34.48;26.70;99625.23;2090584;85;27714;-63
2022/06/19 11:19:04;;;;;;;4.67;1.95;;;;;;;34.46;26.66;99605.70;2090534;85;29100;-67
2022/06/19 11:22:33;;;;;;;6.05;2.15;;;;;;;34.39;26.54;99608.08;2090451;84;32108;-64
2022/06/19 11:25:54;;;;;;;4.33;2.47;;;;;;;34.28;26.36;99619.27;2107396;83;33113;-64
2022/06/19 11:29:21;;;;;;;7.35;1.57;;;;;;;34.20;26.58;99606.62;2090107;85;30040;-65
2022/06/19 11:32:28;;;;;;;4.05;1.85;;;;;;;34.15;26.83;99596.78;2099528;83;27740;-67
2022/06/19 11:35:50;;;;;;;3.58;1.35;;;;;;;34.12;26.76;99588.41;2102918;82;29409;-64
2022/06/19 11:38:55;;;;;;;4.67;2.15;;;;;;;34.08;26.86;99583.05;2104013;83;31108;-69
2022/06/19 11:41:56;;;;;;;12.15;2.55;;;;;;;34.03;26.77;99586.58;2095770;84;32966;-68
2022/06/19 11:45:12;;;;;;;4.45;2.10;;;;;;;34.00;26.95;99585.69;2095692;84;29314;-70
2022/06/19 11:48:36;;;;;;;10.28;1.98;;;;;;;33.99;26.95;99579.00;2095406;85;27747;-66
2022/06/19 11:51:45;;;;;;;1.57;0.95;;;;;;;33.92;26.58;99571.64;2126456;83;27759;-70
2022/06/19 11:54:59;;;;;;;13.20;2.67;;;;;;;33.82;26.92;99581.69;2131080;83;31835;-64
2022/06/19 11:58:29;;;;;;;12.18;2.72;;;;;;;33.79;26.63;99564.41;2100776;83;33760;-65
2022/06/19 12:01:46;;;;;;;11.22;2.30;;;;;;;33.78;25.67;99568.84;2095572;85;30196;-65
2022/06/19 12:04:54;;;;;;;;;;;;;;;33.72;25.52;99555.93;2098426;84;27698;-67
2022/06/19 12:08:04;;;;;;;13.83;2.52;;;;;;;33.65;25.56;99560.25;2125990;83;28784;-66
2022/06/19 12:11:08;;;;;;;12.43;2.67;;;;;;;33.59;25.64;99557.92;2130724;83;31231;-65
2022/06/19 12:14:12;;;;;;;16.77;3.50;;;;;;;33.51;24.73;99547.75;2131489;83;33819;-67
2022/06/19 12:17:35;;;;;;;;;;;;;;;33.43;25.13;99550.37;2134057;83;29296;-67
2022/06/19 12:20:38;;;;;;;16.25;3.67;;;;;;;33.33;25.11;99533.78;2096029;84;27711;-64
2022/06/19 12:23:44;;;;;;;20.57;3.25;;;;;;;33.24;24.97;99539.40;2095777;85;29425;-63
2022/06/19 12:26:49;;;;;;;12.70;3.37;;;;;;;33.18;25.28;99531.52;2095793;84;31016;-64
2022/06/19 12:29:57;;;;;;;13.58;3.22;;;;;;;33.15;25.10;99520.89;2095557;84;32390;-65
2022/06/19 12:33:00;;;;;;;11.80;3.02;;;;;;;33.10;25.40;99537.98;2096283;83;29457;-65
2022/06/19 12:36:03;;;;;;;8.73;3.15;;;;;;;33.03;26.01;99531.18;2116828;83;27747;-64
2022/06/19 12:39:16;;;;;;;10.78;2.98;;;;;;;32.98;26.04;99518.05;2130577;82;28672;-64
2022/06/19 12:42:38;;;;;;;9.83;2.65;;;;;;;33.00;26.59;99516.41;2128559;83;31121;-70
2022/06/19 12:45:49;;;;;;;9.48;1.85;;;;;;;33.01;26.24;99519.48;2130306;83;32972;-64
2022/06/19 12:49:05;;;;;;;13.13;2.75;;;;;;;33.01;26.35;99525.03;2155653;82;29390;-64
2022/06/19 12:52:15;;;;;;;9.00;2.30;;;;;;;33.02;26.28;99519.78;2167646;82;27613;-69
2022/06/19 12:55:28;;;;;;;9.68;3.00;;;;;;;33.03;26.59;99509.81;2166684;82;28747;-64
2022/06/19 12:58:58;;;;;;;17.95;2.42;;;;;;;33.04;26.25;99505.12;2167808;82;31777;-64
2022/06/19 13:02:24;;;;;;;15.70;1.98;;;;;;;33.01;26.17;99492.55;2167649;82;33820;-64
2022/06/19 13:05:40;;;;;;;4.67;1.57;;;;;;;32.98;25.94;99479.20;2149800;82;30127;-64
2022/06/19 13:09:12;;;;;;;12.35;2.60;;;;;;;32.94;26.30;99478.52;2130550;83;27731;-65
2022/06/19 13:12:42;;;;;;;8.25;2.10;;;;;;;32.95;26.31;99473.27;2062980;86;28675;-68
2022/06/19 13:16:18;;;;;;;8.33;1.92;;;;;;;32.95;25.63;99476.91;2027666;87;30928;-67
2022/06/19 13:19:46;;;;;;;10.82;2.90;;;;;;;32.92;25.42;99473.78;2063219;86;33844;-63
2022/06/19 13:23:11;;;;;;;13.53;3.27;;;;;;;32.89;25.71;99473.71;2042211;84;30139;-65
2022/06/19 13:30:21;;;;;;;11.68;2.77;;;;;;;32.80;25.81;99466.27;2061070;86;28706;-66
2022/06/19 13:34:07;;;;;;;12.70;2.90;;;;;;;32.78;25.95;99475.94;2096540;84;27947;-65
2022/06/19 13:37:31;;;;;;;11.20;2.77;;;;;;;32.73;25.91;99463.64;2060003;86;33827;-65
2022/06/19 13:40:47;;;;;;;14.03;2.83;;;;;;;32.76;25.68;99454.53;2110997;83;29438;-63
2022/06/19 13:44:20;;;;;;;13.13;3.05;;;;;;;32.75;26.17;99452.31;2132837;83;27735;-63
2022/06/19 13:47:51;;;;;;;11.22;3.08;;;;;;;32.76;26.03;99439.27;2132681;83;28724;-64
2022/06/19 13:51:27;;;;;;;15.13;2.80;;;;;;;32.73;26.14;99441.45;2167174;82;31819;-62
2022/06/19 13:54:43;;;;;;;8.90;2.83;;;;;;;32.70;25.96;99441.92;2167709;82;33838;-63
2022/06/19 13:58:02;;;;;;;13.53;3.35;;;;;;;32.64;26.21;99444.31;2166836;82;30046;-61
2022/06/19 14:01:27;;;;;;;9.88;3.02;;;;;;;32.60;26.29;99424.25;2167019;82;27716;-61
2022/06/19 14:04:56;;;;;;;5.00;1.72;;;;;;;32.57;26.40;99418.62;2167629;82;28769;-62
2022/06/19 14:08:27;;;;;;;12.93;2.98;;;;;;;32.55;26.36;99419.41;2167250;82;31336;-64
2022/06/19 14:12:03;;;;;;;17.12;3.00;;;;;;;32.54;26.53;99411.64;2167247;82;32825;-63
2022/06/19 14:14:46;;;;;;;9.08;2.35;;;;;;;32.52;26.68;99406.88;2170180;80;29344;-64
2022/06/19 14:18:23;;;;;;;;;;;;;;;32.50;27.08;99412.38;2170087;82;28258;-64
2022/06/19 14:21:51;;;;;;;6.95;2.05;;;;;;;32.45;27.98;99398.39;2161929;82;29430;-66
2022/06/19 14:25:26;;;;;;;8.15;2.70;;;;;;;32.36;27.22;99412.61;2161071;80;31298;-64
2022/06/19 14:28:39;;;;;;;9.10;2.42;;;;;;;32.32;27.17;99407.27;2166226;82;33044;-64
2022/06/19 14:31:41;;;;;;;10.50;2.50;;;;;;;32.28;27.45;99390.27;2118420;82;29376;-66
2022/06/19 14:34:56;;;;;;;3.33;1.62;;;;;;;32.26;27.72;99390.22;2165811;80;27915;-66
2022/06/19 14:38:06;;;;;;;12.58;2.08;;;;;;;32.26;28.03;99391.60;2165859;80;28689;-64
2022/06/19 14:41:25;;;;;;;12.25;2.90;;;;;;;32.25;28.24;99399.05;2166515;82;31050;-63
2022/06/19 14:44:27;;;;;;;11.18;2.58;;;;;;;32.25;27.95;99389.88;2166396;82;33018;-65
2022/06/19 14:47:46;;;;;;;3.08;1.67;;;;;;;32.25;27.78;99381.56;2160049;82;29370;-67
2022/06/19 14:51:35;;;;;;;9.45;2.12;;;;;;;32.23;28.50;99390.13;2159827;82;27696;-67
2022/06/19 14:55:03;;;;;;;8.60;2.67;;;;;;;32.22;28.29;99368.19;2166225;80;29472;-63
2022/06/19 14:58:22;;;;;;;8.38;2.10;;;;;;;32.16;28.26;99379.70;2165982;80;31908;-63
2022/06/19 15:01:28;;;;;;;10.93;3.15;;;;;;;32.15;28.38;99371.08;2165337;80;33593;-64
2022/06/19 15:04:33;;;;;;;9.75;2.55;;;;;;;32.12;28.38;99361.34;2166133;82;29505;-65